Terminal Aerodrome Forecast
Issued by NWS

Home | Current Version | Previous Version | Text Only | Print | Product List | Glossary On
Versions: 1 2 3 4 5 6 7 8 9 10 11 12 13
040
FTUS46 KHNX 281727
TAFFAT
TAF
KFAT 281727Z 2818/2918 32013G20KT P6SM SKC
      TEMPO 2822/2902 32020G28KT
     FM290600 31012KT P6SM SKC
     FM291200 31006KT P6SM SKC=

USA.gov is the U.S. government's official web portal to all federal, state and local government web resources and services.